Time;durP1;ratioP1;P1;durP2;ratioP2;P2;SDS_P1;SDS_P2;PMS_P1;PMS_P2;Temp;Humidity;BMP_temperature;BMP_pressure;BME280_temperature;BME280_humidity;BME280_pressure;Samples;Min_cycle;Max_cycle;Signal;HPM_P1;HPM_P2
2023/12/16 00:00:30;;;;;;;15.35;10.98;;;;;;;7.54;81.77;103017.56;4155994;28;20575;-73
2023/12/16 00:02:37;;;;;;;15.15;11.90;;;;;;;7.52;81.60;103008.78;4137352;28;20043;-73
2023/12/16 00:04:40;;;;;;;16.02;11.07;;;;;;;7.48;81.99;103001.63;4172702;28;20046;-73
2023/12/16 00:06:44;;;;;;;16.25;11.50;;;;;;;7.54;81.63;102993.38;4148364;28;20064;-73
2023/12/16 00:08:47;;;;;;;14.70;9.82;;;;;;;7.53;81.58;102992.44;4159226;28;20096;-73
2023/12/16 00:10:50;;;;;;;12.73;9.38;;;;;;;7.46;81.66;102980.81;4163354;28;20033;-74
2023/12/16 00:12:57;;;;;;;13.40;9.25;;;;;;;7.50;81.78;102976.72;4154999;28;20042;-73
2023/12/16 00:15:01;;;;;;;15.25;10.82;;;;;;;7.49;81.51;102977.50;4151078;28;20092;-74
2023/12/16 00:17:05;;;;;;;16.02;11.57;;;;;;;7.48;81.64;102975.72;4139181;28;20532;-73
2023/12/16 00:19:09;;;;;;;18.10;12.40;;;;;;;7.47;81.31;102987.75;4167928;28;20046;-73
2023/12/16 00:21:12;;;;;;;16.08;9.95;;;;;;;7.42;81.19;103007.25;4164026;28;20049;-73
2023/12/16 00:23:15;;;;;;;15.85;11.68;;;;;;;7.31;81.70;103011.69;4157044;28;20073;-73
2023/12/16 00:25:18;;;;;;;18.75;12.90;;;;;;;7.36;81.34;103016.28;4138246;28;20089;-73
2023/12/16 00:27:21;;;;;;;17.95;12.07;;;;;;;7.34;81.56;103014.50;4154770;28;20101;-73
2023/12/16 00:29:25;;;;;;;15.68;10.85;;;;;;;7.35;81.18;103012.81;4157265;28;20092;-73
2023/12/16 00:31:28;;;;;;;17.65;11.18;;;;;;;7.39;81.44;103017.41;4161398;28;20464;-73
2023/12/16 00:33:32;;;;;;;17.38;12.75;;;;;;;7.40;81.04;103018.28;4155244;28;20079;-74
2023/12/16 00:35:36;;;;;;;16.55;12.05;;;;;;;7.38;81.41;103015.59;4154501;28;20042;-74
2023/12/16 00:37:40;;;;;;;14.82;11.27;;;;;;;7.42;81.38;103021.91;4153007;28;20041;-75
2023/12/16 00:39:44;;;;;;;16.50;11.63;;;;;;;7.39;80.89;103014.81;4139677;28;20545;-75
2023/12/16 00:41:48;;;;;;;13.60;10.00;;;;;;;7.36;81.07;103021.47;4142059;28;20042;-75
2023/12/16 00:43:51;;;;;;;16.17;10.13;;;;;;;7.36;81.16;103024.97;4160290;28;20562;-75
2023/12/16 00:45:58;;;;;;;15.75;10.85;;;;;;;7.42;81.13;103021.91;4163637;28;20050;-75
2023/12/16 00:48:10;;;;;;;14.88;10.85;;;;;;;7.43;80.99;103028.84;4143504;28;20046;-74
2023/12/16 00:50:14;;;;;;;16.45;11.48;;;;;;;7.35;81.17;103020.56;4140613;28;20061;-75
2023/12/16 00:52:19;;;;;;;14.65;9.57;;;;;;;7.41;81.17;103031.34;4156495;28;20038;-74
2023/12/16 00:54:26;;;;;;;14.60;10.70;;;;;;;7.34;81.16;103021.34;4160857;28;20054;-75
2023/12/16 00:56:30;;;;;;;15.30;10.43;;;;;;;7.39;80.78;103022.59;4141723;28;20042;-75
2023/12/16 00:58:33;;;;;;;16.15;11.55;;;;;;;7.31;81.16;103018.56;4162351;28;20524;-74
2023/12/16 01:00:38;;;;;;;15.73;11.95;;;;;;;7.30;81.40;103012.50;4142199;28;20038;-75
2023/12/16 01:02:40;;;;;;;16.20;10.98;;;;;;;7.32;80.95;103007.44;4148462;28;20046;-75
2023/12/16 01:04:47;;;;;;;18.17;11.50;;;;;;;7.31;81.35;103014.28;4154368;28;20069;-75
2023/12/16 01:06:51;;;;;;;16.10;11.88;;;;;;;7.32;81.26;103023.84;4147607;28;20039;-75
2023/12/16 01:08:56;;;;;;;16.35;12.63;;;;;;;7.27;80.89;103026.91;4161474;28;20402;-75
2023/12/16 01:11:01;;;;;;;15.75;11.70;;;;;;;7.25;80.78;103039.72;4137285;28;20043;-75
2023/12/16 01:13:04;;;;;;;17.50;12.43;;;;;;;7.22;81.39;103034.34;4141951;28;20080;-74
2023/12/16 01:15:08;;;;;;;17.00;12.95;;;;;;;7.22;80.93;103033.47;4157961;28;20038;-74
2023/12/16 01:17:12;;;;;;;;;;;;;;;7.14;81.08;103030.31;4159435;28;20537;-74
2023/12/16 01:19:15;;;;;;;;;;;;;;;7.08;81.95;103035.06;4154395;28;19925;-74
2023/12/16 01:21:18;;;;;;;;;;;;;;;7.05;81.94;103037.44;4150240;28;19987;-74
2023/12/16 01:23:20;;;;;;;;;;;;;;;7.02;82.15;103034.66;4137023;28;19925;-74
2023/12/16 01:25:24;;;;;;;;;;;;;;;6.99;82.22;103035.31;4151105;28;19963;-74
2023/12/16 01:27:26;;;;;;;;;;;;;;;6.99;82.10;103033.66;4157463;28;19936;-74
2023/12/16 01:29:29;;;;;;;;;;;;;;;6.95;82.08;103041.06;4138033;28;19922;-73
2023/12/16 01:31:31;;;;;;;;;;;;;;;6.92;82.02;103038.25;4135878;28;19926;-74
2023/12/16 01:33:34;;;;;;;;;;;;;;;6.94;82.36;103036.69;4142716;28;19979;-74
2023/12/16 01:35:38;;;;;;;;;;;;;;;6.91;82.25;103039.97;4155589;28;19921;-74
2023/12/16 01:37:40;;;;;;;;;;;;;;;6.90;82.57;103039.84;4132772;28;19949;-74
2023/12/16 01:39:44;;;;;;;;;;;;;;;6.91;82.49;103041.66;4171703;28;19927;-73
2023/12/16 01:41:51;;;;;;;;;;;;;;;6.85;83.37;103042.13;4153083;28;19948;-74
2023/12/16 01:43:55;;;;;;;;;;;;;;;6.88;82.72;103047.50;4149123;28;19949;-74
2023/12/16 01:46:01;;;;;;;;;;;;;;;6.92;82.60;103052.13;4142503;28;20016;-74
2023/12/16 01:48:06;;;;;;;;;;;;;;;6.97;83.09;103053.31;4135057;28;19926;-74
2023/12/16 01:50:10;;;;;;;;;;;;;;;6.95;82.74;103061.75;4139079;28;19953;-74
2023/12/16 01:52:13;;;;;;;;;;;;;;;6.92;82.45;103065.03;4150375;28;19929;-74
2023/12/16 01:54:16;;;;;;;;;;;;;;;6.90;83.10;103065.72;4131118;28;19922;-74
2023/12/16 01:56:21;;;;;;;;;;;;;;;6.89;83.01;103058.75;4152364;28;19922;-75
2023/12/16 01:58:26;;;;;;;;;;;;;;;6.90;83.06;103060.53;4149452;28;19921;-75
2023/12/16 02:00:30;;;;;;;;;;;;;;;7.07;82.35;103062.63;4153591;28;19922;-74
2023/12/16 02:02:34;;;;;;;;;;;;;;;7.07;81.69;103057.47;4145663;28;19929;-74
2023/12/16 02:04:38;;;;;;;;;;;;;;;7.13;81.86;103064.75;4130084;28;19925;-74
2023/12/16 02:06:41;;;;;;;;;;;;;;;7.12;81.07;103057.78;4142669;28;20027;-74
2023/12/16 02:08:44;;;;;;;;;;;;;;;6.97;81.78;103062.78;4156532;28;19921;-74
2023/12/16 02:10:51;;;;;;;;;;;;;;;6.96;81.93;103068.72;4143729;28;19992;-74
2023/12/16 02:13:02;;;;;;;;;;;;;;;6.92;82.54;103074.47;4147611;28;19949;-74
2023/12/16 02:15:09;;;;;;;;;;;;;;;6.88;82.66;103062.09;4134780;28;19956;-75
2023/12/16 02:17:12;;;;;;;;;;;;;;;6.84;82.58;103068.75;4140235;28;19926;-74
2023/12/16 02:19:22;;;;;;;;;;;;;;;6.82;83.10;103072.94;4155710;28;20388;-74
2023/12/16 02:21:28;;;;;;;;;;;;;;;6.85;82.95;103069.66;4148568;28;19928;-75
2023/12/16 02:23:32;;;;;;;;;;;;;;;6.87;82.93;103063.81;4147289;28;19985;-74
2023/12/16 02:25:35;;;;;;;;;;;;;;;6.88;83.07;103067.28;4156499;28;19928;-74
2023/12/16 02:27:38;;;;;;;;;;;;;;;6.86;83.43;103066.28;4137770;28;19929;-75
2023/12/16 02:29:41;;;;;;;;;;;;;;;6.85;82.91;103073.16;4154482;28;20078;-74
2023/12/16 02:31:44;;;;;;;;;;;;;;;6.84;83.62;103073.94;4136160;28;19976;-74
2023/12/16 02:33:49;;;;;;;;;;;;;;;6.87;83.21;103081.91;4154058;28;20423;-74
2023/12/16 02:35:53;;;;;;;;;;;;;;;6.90;83.56;103076.06;4160314;28;20004;-75
2023/12/16 02:37:59;;;;;;;;;;;;;;;6.91;83.28;103076.16;4159320;28;20243;-74
2023/12/16 02:40:04;;;;;;;;;;;;;;;6.86;83.82;103082.69;4143119;28;20019;-74
2023/12/16 02:42:07;;;;;;;;;;;;;;;6.89;83.51;103080.34;4161119;28;20518;-74
2023/12/16 02:44:10;;;;;;;;;;;;;;;6.92;83.19;103084.81;4138076;28;20060;-74
2023/12/16 02:46:13;;;;;;;;;;;;;;;6.92;83.25;103080.56;4138804;28;19928;-74
2023/12/16 02:48:16;;;;;;;;;;;;;;;6.96;83.15;103089.41;4137801;28;19925;-74
2023/12/16 02:50:22;;;;;;;;;;;;;;;6.96;83.10;103095.47;4155917;28;20363;-74
2023/12/16 02:52:25;;;;;;;;;;;;;;;6.94;83.06;103099.66;4137571;28;19926;-75
2023/12/16 02:54:31;;;;;;;;;;;;;;;6.92;83.32;103103.84;4151740;28;20040;-73
2023/12/16 02:56:38;;;;;;;;;;;;;;;6.95;83.21;103096.28;4140172;28;19921;-74
2023/12/16 02:58:42;;;;;;;;;;;;;;;6.96;83.43;103102.34;4141088;28;19928;-73
2023/12/16 03:00:47;;;;;;;;;;;;;;;6.94;83.67;103104.81;4131930;28;19926;-74
2023/12/16 03:02:51;;;;;;;;;;;;;;;6.90;83.42;103092.47;4143356;28;19922;-74
2023/12/16 03:05:01;;;;;;;;;;;;;;;6.91;83.52;103089.09;4156339;28;19921;-73
2023/12/16 03:07:05;;;;;;;;;;;;;;;6.95;83.47;103095.38;4139980;28;19933;-74
2023/12/16 03:09:11;;;;;;;;;;;;;;;6.95;83.49;103085.94;4148694;28;19929;-73
2023/12/16 03:11:15;;;;;;;;;;;;;;;6.97;83.27;103094.69;4152077;28;19932;-74
2023/12/16 03:13:20;;;;;;;;;;;;;;;7.04;83.10;103092.53;4146487;28;20008;-75
2023/12/16 03:15:23;;;;;;;;;;;;;;;7.00;82.96;103096.63;4154424;28;21299;-74
2023/12/16 03:17:28;;;;;;;;;;;;;;;6.96;82.95;103098.06;4133756;28;19928;-74
2023/12/16 03:19:35;;;;;;;;;;;;;;;6.98;83.27;103091.34;4154654;28;19957;-74
2023/12/16 03:21:40;;;;;;;;;;;;;;;6.98;83.46;103090.44;4132717;28;20345;-74
2023/12/16 03:23:43;;;;;;;;;;;;;;;6.98;83.03;103088.75;4151841;28;20012;-75
2023/12/16 03:25:46;;;;;;;;;;;;;;;6.99;83.51;103090.56;4156722;28;19972;-75
2023/12/16 03:27:49;;;;;;;;;;;;;;;6.98;82.88;103093.03;4137265;28;20432;-74
2023/12/16 03:29:53;;;;;;;;;;;;;;;6.98;82.99;103085.28;4143339;28;19922;-74
2023/12/16 03:31:55;;;;;;;;;;;;;;;6.97;83.11;103076.59;4161333;28;19996;-74
2023/12/16 03:33:59;;;;;;;;;;;;;;;6.95;83.03;103075.59;4157970;28;20327;-75
2023/12/16 03:36:03;;;;;;;;;;;;;;;6.90;83.15;103076.06;4161340;28;20005;-74
2023/12/16 03:38:05;;;;;;;;;;;;;;;6.88;83.77;103075.03;4151796;28;20016;-75
2023/12/16 03:40:09;;;;;;;;;;;;;;;6.87;83.33;103079.31;4144609;28;19926;-75
2023/12/16 03:42:21;;;;;;;;;;;;;;;6.89;83.39;103075.16;4140639;28;19926;-74
2023/12/16 03:44:25;;;;;;;;;;;;;;;6.98;83.18;103074.94;4168115;28;19921;-75
2023/12/16 03:46:28;;;;;;;;;;;;;;;6.94;84.00;103076.38;4150521;28;19921;-74
2023/12/16 03:48:31;;;;;;;;;;;;;;;6.92;83.23;103067.63;4139750;28;19945;-74
2023/12/16 03:50:36;;;;;;;;;;;;;;;6.88;83.79;103070.78;4153778;28;19971;-73
2023/12/16 03:52:38;;;;;;;;;;;;;;;6.89;83.84;103070.00;4164068;28;20331;-74
2023/12/16 03:54:42;;;;;;;;;;;;;;;6.89;83.50;103080.34;4145031;28;19981;-74
2023/12/16 03:56:44;;;;;;;;;;;;;;;6.91;83.22;103078.75;4155117;28;19928;-74
2023/12/16 03:58:46;;;;;;;;;;;;;;;6.90;83.65;103076.06;4175254;28;19921;-74
2023/12/16 04:00:49;;;;;;;;;;;;;;;6.89;83.04;103075.16;4145144;28;19926;-74
2023/12/16 04:02:53;;;;;;;;;;;;;;;6.87;83.40;103066.38;4155403;28;20015;-74
2023/12/16 04:04:56;;;;;;;;;;;;;;;6.87;83.76;103076.72;4157013;28;19921;-74
2023/12/16 04:07:00;;;;;;;;;;;;;;;6.87;83.10;103079.31;4153385;28;19927;-74
2023/12/16 04:09:03;;;;;;;;;;;;;;;6.87;83.37;103074.13;4141505;28;20372;-74
2023/12/16 04:11:06;;;;;;;;;;;;;;;6.86;83.24;103081.78;4151372;28;20011;-74
2023/12/16 04:13:09;;;;;;;;;;;;;;;6.87;83.56;103074.13;4156442;28;20016;-74
2023/12/16 04:15:13;;;;;;;;;;;;;;;6.83;83.32;103074.72;4151195;28;19926;-74
2023/12/16 04:17:17;;;;;;;;;;;;;;;6.84;83.21;103078.22;4146266;28;19930;-75
2023/12/16 04:19:24;;;;;;;;;;;;;;;6.83;83.32;103085.06;4147979;28;19944;-75
2023/12/16 04:21:28;;;;;;;;;;;;;;;6.85;83.60;103080.91;4151000;28;19921;-74
2023/12/16 04:23:32;;;;;;;;;;;;;;;6.87;83.90;103081.00;4155287;28;19928;-75
2023/12/16 04:25:35;;;;;;;;;;;;;;;6.93;82.92;103082.34;4143687;28;20001;-74
2023/12/16 04:27:38;;;;;;;;;;;;;;;6.88;83.45;103085.38;4159092;28;19921;-75
2023/12/16 04:29:41;;;;;;;;;;;;;;;6.80;83.48;103074.50;4162989;28;20373;-75
2023/12/16 04:31:46;;;;;;;;;;;;;;;6.77;83.34;103084.63;4155772;28;19951;-75
2023/12/16 04:33:57;;;;;;;;;;;;;;;6.76;83.92;103086.31;4159552;28;19932;-74
2023/12/16 04:36:02;;;;;;;;;;;;;;;6.79;83.35;103081.34;4133603;28;19929;-75
2023/12/16 04:38:13;;;;;;;;;;;;;;;6.80;83.34;103079.66;4152919;28;19932;-75
2023/12/16 04:40:21;;;;;;;;;;;;;;;6.76;83.32;103083.72;4156937;28;19927;-76
2023/12/16 04:42:26;;;;;;;;;;;;;;;6.76;84.00;103080.22;4158156;28;20447;-75
2023/12/16 04:44:29;;;;;;;;;;;;;;;6.77;83.12;103079.44;4164173;28;19961;-74
2023/12/16 04:49:21;;;;;;;;;;;;;;;6.75;83.65;103087.09;4161563;28;19948;-75
2023/12/16 04:51:29;;;;;;;;;;;;;;;6.74;83.71;103086.97;4146016;28;19922;-75
2023/12/16 04:53:33;;;;;;;;;;;;;;;6.69;83.73;103089.25;4135514;28;20037;-74
2023/12/16 04:55:36;;;;;;;;;;;;;;;6.67;83.62;103077.88;4149445;28;20701;-74
2023/12/16 04:57:40;;;;;;;;;;;;;;;6.70;83.22;103077.19;4154694;28;19940;-75
2023/12/16 04:59:45;;;;;;;;;;;;;;;6.69;83.67;103076.31;4157369;28;19952;-74
2023/12/16 05:01:47;;;;;;;;;;;;;;;6.68;83.43;103079.69;4145789;28;20610;-74
2023/12/16 05:03:55;;;;;;;;;;;;;;;6.64;83.46;103075.06;4150908;28;19964;-75
2023/12/16 05:05:58;;;;;;;;;;;;;;;6.66;83.50;103080.34;4136943;28;19941;-74
2023/12/16 05:08:08;;;;;;;;;;;;;;;6.67;83.19;103082.16;4149577;28;19921;-75
2023/12/16 05:10:15;;;;;;;;;;;;;;;6.68;83.49;103076.22;4160421;28;19928;-74
2023/12/16 05:12:18;;;;;;;;;;;;;;;6.66;83.24;103088.09;4150473;28;19922;-75
2023/12/16 05:14:39;;;;;;;;;;;;;;;6.66;83.42;103080.34;4146068;28;19996;-75
2023/12/16 05:16:42;;;;;;;;;;;;;;;6.65;83.06;103084.63;4139464;28;19929;-74
2023/12/16 05:18:45;;;;;;;;;;;;;;;6.64;83.10;103083.75;4152178;28;20016;-74
2023/12/16 05:20:48;;;;;;;;;;;;;;;6.61;82.78;103082.59;4156331;28;19940;-74
2023/12/16 05:22:50;;;;;;;;;;;;;;;6.59;83.10;103090.25;4154863;28;19925;-74
2023/12/16 05:24:54;;;;;;;;;;;;;;;6.57;82.71;103089.25;4154937;28;19960;-74
2023/12/16 05:26:57;;;;;;;;;;;;;;;6.57;83.25;103094.41;4157580;28;19975;-74
2023/12/16 05:29:00;;;;;;;;;;;;;;;6.57;83.44;103097.00;4148488;28;19925;-74
2023/12/16 05:31:02;;;;;;;;;;;;;;;6.56;83.06;103100.38;4155577;28;19921;-74
2023/12/16 05:33:05;;;;;;;;;;;;;;;6.54;82.68;103101.97;4154458;28;19929;-74
2023/12/16 05:35:08;;;;;;;;;;;;;;;6.56;83.21;103100.38;4163673;28;20356;-74
2023/12/16 05:37:11;;;;;;;;;;;;;;;6.54;82.77;103101.03;4161085;28;19921;-74
2023/12/16 05:39:13;;;;;;;;;;;;;;;6.51;83.28;103091.34;4152404;28;19979;-74
2023/12/16 05:41:17;;;;;;;;;;;;;;;6.51;83.22;103100.81;4148189;28;20447;-74
2023/12/16 05:43:19;;;;;;;;;;;;;;;6.51;83.39;103095.63;4158245;28;20313;-74
2023/12/16 05:45:22;;;;;;;;;;;;;;;6.45;83.05;103094.44;4156205;28;19929;-74
2023/12/16 05:47:24;;;;;;;;;;;;;;;6.42;83.61;103095.88;4154197;28;20275;-74
2023/12/16 05:49:27;;;;;;;;;;;;;;;6.41;83.07;103099.22;4152919;28;20384;-74
2023/12/16 05:51:39;;;;;;;;;;;;;;;6.41;83.50;103099.22;4158702;28;19948;-74
2023/12/16 05:53:42;;;;;;;;;;;;;;;6.42;83.61;103106.19;4153660;28;19984;-74
2023/12/16 05:55:47;;;;;;;;;;;;;;;6.44;83.53;103102.06;4137390;28;19945;-74
2023/12/16 05:57:51;;;;;;;;;;;;;;;6.46;83.27;103113.41;4145352;28;19988;-75
2023/12/16 05:59:55;;;;;;;;;;;;;;;6.46;82.76;103109.13;4160205;28;19967;-75
2023/12/16 06:02:02;;;;;;;;;;;;;;;6.46;83.23;103113.41;4155968;28;19927;-75
2023/12/16 06:04:04;;;;;;;;;;;;;;;6.42;83.34;103114.84;4155311;28;19928;-74
2023/12/16 06:06:08;;;;;;;;;;;;;;;6.43;83.29;103116.66;4147424;28;19948;-75
2023/12/16 06:08:12;;;;;;;;;;;;;;;6.46;83.05;103126.31;4141312;28;19940;-75
2023/12/16 06:10:13;;;;;;;;;;;;;;;6.49;82.89;103123.06;4153364;28;19949;-74
2023/12/16 06:12:17;;;;;;;;;;;;;;;6.46;83.37;103128.91;4160873;28;19921;-73
2023/12/16 06:14:21;;;;;;;;;;;;;;;6.45;82.93;103135.78;4153341;28;20024;-73
2023/12/16 06:16:23;;;;;;;;;;;;;;;6.47;83.09;103131.59;4150565;28;19943;-73
2023/12/16 06:18:26;;;;;;;;;;;;;;;6.47;83.07;103136.75;4153732;28;19963;-73
2023/12/16 06:20:29;;;;;;;;;;;;;;;6.47;82.85;103135.88;4136094;28;20328;-73
2023/12/16 06:22:32;;;;;;;;;;;;;;;6.47;82.79;103128.13;4151978;28;20373;-74
2023/12/16 06:24:35;;;;;;;;;;;;;;;6.50;82.83;103132.59;4158708;28;20413;-73
2023/12/16 06:26:38;;;;;;;;;;;;;;;6.47;82.57;103131.59;4150219;28;19925;-73
2023/12/16 06:28:42;;;;;;;;;;;;;;;6.48;82.74;103132.50;4148073;28;19936;-74
2023/12/16 06:30:46;;;;;;;;;;;;;;;6.46;82.58;103136.66;4140488;28;19932;-75
2023/12/16 06:32:50;;;;;;;;;;;;;;;6.45;83.10;103132.25;4137769;28;19921;-74
2023/12/16 06:34:52;;;;;;;;;;;;;;;6.45;83.03;103127.09;4141430;28;19921;-73
2023/12/16 06:37:24;;;;;;;;;;;;;;;6.44;82.60;103128.78;4140645;28;19929;-74
2023/12/16 06:39:28;;;;;;;;;;;;;;;6.44;83.11;103123.63;4143009;28;20375;-74
2023/12/16 06:41:34;;;;;;;;;;;;;;;6.43;82.93;103123.50;4153792;28;19959;-74
2023/12/16 06:43:37;;;;;;;;;;;;;;;6.41;82.50;103119.91;4149727;28;19964;-74
2023/12/16 06:45:40;;;;;;;;;;;;;;;6.42;82.73;103121.72;4150821;28;19921;-74
2023/12/16 06:47:44;;;;;;;;;;;;;;;6.42;82.65;103130.34;4160185;28;19925;-74
2023/12/16 06:49:47;;;;;;;;;;;;;;;6.43;83.17;103139.00;4137976;28;19964;-73
2023/12/16 06:51:51;;;;;;;;;;;;;;;6.44;83.07;103127.91;4151631;28;19921;-74
2023/12/16 06:53:54;;;;;;;;;;;;;;;6.42;82.69;103138.09;4149829;28;19926;-74
2023/12/16 06:55:59;;;;;;;;;;;;;;;6.37;82.91;103142.03;4134976;28;20012;-74
2023/12/16 06:58:02;;;;;;;;;;;;;;;6.38;82.78;103155.84;4141927;28;19976;-74
2023/12/16 07:00:07;;;;;;;;;;;;;;;6.38;83.45;103155.84;4147486;28;19976;-74
2023/12/16 07:02:10;;;;;;;;;;;;;;;6.39;83.11;103158.53;4155692;28;20004;-74
2023/12/16 07:04:14;;;;;;;;;;;;;;;6.40;82.87;103159.47;4150695;28;19929;-74
2023/12/16 07:06:18;;;;;;;;;;;;;;;6.42;83.52;103163.94;4130524;28;19926;-74
2023/12/16 07:08:20;;;;;;;;;;;;;;;6.43;83.17;103167.44;4143571;28;19984;-75
2023/12/16 07:10:23;;;;;;;;;;;;;;;6.43;82.93;103168.31;4156783;28;19925;-75
2023/12/16 07:12:27;;;;;;;;;;;;;;;6.43;83.45;103160.56;4149268;28;19924;-74
2023/12/16 07:14:30;;;;;;;;;;;;;;;6.47;83.22;103159.13;4138434;28;19928;-74
2023/12/16 07:16:34;;;;;;;;;;;;;;;6.45;82.99;103156.44;4149448;28;19921;-73
2023/12/16 07:18:39;;;;;;;;;;;;;;;6.48;83.03;103160.91;4167308;28;19921;-74
2023/12/16 07:20:44;;;;;;;;;;;;;;;6.48;82.76;103163.50;4172365;28;19925;-74
2023/12/16 07:22:49;;;;;;;;;;;;;;;6.47;83.34;103156.56;4145941;28;20415;-74
2023/12/16 07:24:51;;;;;;;;;;;;;;;6.50;82.51;103159.38;4146499;28;19930;-74
2023/12/16 07:26:54;;;;;;;;;;;;;;;6.49;82.75;103160.13;4142334;28;19922;-74
2023/12/16 07:28:57;;;;;;;;;;;;;;;6.46;82.65;103165.09;4146050;28;19926;-74
2023/12/16 07:31:00;;;;;;;;;;;;;;;6.44;82.75;103166.66;4141759;28;20004;-74
2023/12/16 07:33:02;;;;;;;;;;;;;;;6.47;82.89;103172.06;4153094;28;19921;-74
2023/12/16 07:35:08;;;;;;;;;;;;;;;6.44;82.81;103169.25;4140206;28;20494;-74
2023/12/16 07:37:13;;;;;;;;;;;;;;;6.49;82.49;103179.94;4139990;28;19921;-74
2023/12/16 07:39:16;;;;;;;;;;;;;;;6.51;82.73;103181.81;4146028;28;19922;-74
2023/12/16 07:41:20;;;;;;;;;;;;;;;6.54;82.80;103183.72;4135729;28;19926;-74
2023/12/16 07:43:23;;;;;;;;;;;;;;;6.53;82.35;103188.00;4150368;28;19945;-75
2023/12/16 07:45:25;;;;;;;;;;;;;;;6.47;82.07;103179.81;4153135;28;19953;-74
2023/12/16 07:47:29;;;;;;;;;;;;;;;6.50;82.29;103176.53;4166800;28;19925;-74
2023/12/16 07:49:33;;;;;;;;;;;;;;;6.52;82.34;103177.56;4121365;28;19973;-74
2023/12/16 07:51:36;;;;;;;;;;;;;;;6.49;82.40;103175.66;4153121;28;19932;-74
2023/12/16 07:53:43;;;;;;;;;;;;;;;6.52;82.15;103175.88;4139339;28;19929;-74
2023/12/16 07:55:47;;;;;;;;;;;;;;;6.53;82.53;103175.09;4136572;28;19948;-74
2023/12/16 07:57:49;;;;;;;;;;;;;;;6.58;82.21;103173.72;4130819;28;19925;-75
2023/12/16 07:59:52;;;;;;;;;;;;;;;6.58;82.54;103176.31;4157124;28;20451;-74
2023/12/16 08:01:57;;;;;;;;;;;;;;;6.60;82.02;103184.19;4137780;28;20042;-74
2023/12/16 08:04:00;;;;;;;;;;;;;;;6.65;82.27;103188.03;4155935;28;20416;-75
2023/12/16 08:06:07;;;;;;;;;;;;;;;6.61;82.22;103196.34;4142292;28;20348;-75
2023/12/16 08:08:13;;;;;;;;;;;;;;;6.62;82.35;103186.09;4152858;28;19952;-75
2023/12/16 08:10:18;;;;;;;;;;;;;;;6.67;82.33;103196.78;4132833;28;20045;-75
2023/12/16 08:12:22;;;;;;;;;;;;;;;6.67;82.60;103195.91;4132356;28;19928;-75
2023/12/16 08:14:25;;;;;;;;;;;;;;;6.66;81.86;103194.09;4148334;28;19921;-76
2023/12/16 08:16:30;;;;;;;;;;;;;;;6.66;82.51;103204.44;4132892;28;20448;-76
2023/12/16 08:18:33;;;;;;;;;;;;;;;6.66;81.81;103192.41;4138776;28;19922;-75
2023/12/16 08:20:37;;;;;;;;;;;;;;;6.69;81.94;103195.22;4143811;28;19921;-76
2023/12/16 08:22:39;;;;;;;;;;;;;;;6.74;82.35;103196.44;4148315;28;19925;-76
2023/12/16 08:24:42;;;;;;;;;;;;;;;6.77;81.42;103194.09;4145349;28;20026;-76
2023/12/16 08:26:50;;;;;;;;;;;;;;;6.76;81.79;103197.47;4146906;28;19921;-75
2023/12/16 08:28:54;;;;;;;;;;;;;;;6.78;81.76;103206.25;4139968;28;19972;-76
2023/12/16 08:30:58;;;;;;;;;;;;;;;6.79;81.50;103207.13;4159698;28;19979;-76
2023/12/16 08:33:02;;;;;;;;;;;;;;;6.73;81.41;103211.84;4123364;28;19928;-75
2023/12/16 08:35:06;;;;;;;;;;;;;;;6.75;81.46;103213.78;4168186;22;20311;-76
2023/12/16 08:37:10;;;;;;;;;;;;;;;6.76;81.48;103212.06;4102365;28;19926;-76
2023/12/16 08:39:13;;;;;;;;;;;;;;;6.80;81.32;103219.28;4133743;28;19926;-76
2023/12/16 08:41:16;;;;;;;;;;;;;;;6.79;81.39;103218.41;4097814;28;19922;-75
2023/12/16 08:43:21;;;;;;;;;;;;;;;6.83;80.87;103224.69;4154668;28;19963;-75
2023/12/16 08:45:25;;;;;;;;;;;;;;;6.85;81.17;103228.28;4134159;28;19922;-76
2023/12/16 08:47:34;;;;;;;;;;;;;;;6.87;80.84;103228.41;4112665;28;19929;-75
2023/12/16 08:49:36;;;;;;;;;;;;;;;6.84;81.41;103230.78;4126298;28;20110;-75
2023/12/16 08:51:39;;;;;;;;;;;;;;;6.90;81.07;103242.44;4110836;28;19922;-75
2023/12/16 08:53:42;;;;;;;;;;;;;;;7.09;79.33;103243.81;4124334;28;20021;-76
2023/12/16 08:55:46;;;;;;;;;;;;;;;6.95;79.33;103247.94;4120848;28;19926;-75
2023/12/16 08:57:51;;;;;;;;;;;;;;;6.89;79.29;103248.44;4136339;28;19961;-76
2023/12/16 08:59:58;;;;;;;;;;;;;;;6.86;79.61;103245.59;4122478;28;19926;-76
2023/12/16 09:02:02;;;;;;;;;;;;;;;6.89;79.45;103248.44;4127625;28;19929;-76
2023/12/16 09:04:06;;;;;;;;;;;;;;;6.89;79.00;103245.84;4145866;28;19929;-76
2023/12/16 09:06:09;;;;;;;;;;;;;;;6.88;79.28;103254.38;4113366;28;19926;-75
2023/12/16 09:08:12;;;;;;;;;;;;;;;6.91;78.93;103254.59;4136349;28;19982;-75
2023/12/16 09:10:15;;;;;;;;;;;;;;;6.95;79.15;103261.81;4105745;28;19952;-76
2023/12/16 09:12:18;;;;;;;;;;;;;;;7.00;79.38;103267.31;4132568;28;19968;-76
2023/12/16 09:14:22;;;;;;;;;;;;;;;7.04;79.41;103265.84;4125020;28;19922;-76
2023/12/16 09:16:28;;;;;;;;;;;;;;;7.06;79.53;103262.59;4103635;28;19927;-75
2023/12/16 09:18:31;;;;;;;;;;;;;;;7.10;79.60;103268.91;4107156;28;19922;-75
2023/12/16 09:20:35;;;;;;;;;;;;;;;7.12;79.54;103272.50;4104053;28;19934;-76
2023/12/16 09:22:43;;;;;;;;;;;;;;;7.14;80.07;103271.81;4104846;28;19922;-75
2023/12/16 09:24:47;;;;;;;;;;;;;;;7.11;80.34;103273.28;4126713;28;19926;-75
2023/12/16 09:26:51;;;;;;;;;;;;;;;7.10;79.87;103277.56;4138008;28;19925;-75
2023/12/16 09:28:53;;;;;;;;;;;;;;;7.13;79.99;103267.44;4107039;28;19922;-76
2023/12/16 09:30:57;;;;;;;;;;;;;;;7.18;80.13;103272.06;4112814;28;19922;-76
2023/12/16 09:33:07;;;;;;;;;;;;;;;7.22;80.27;103268.91;4106320;28;19930;-75
2023/12/16 09:35:10;;;;;;;;;;;;;;;7.26;80.11;103273.53;4105373;28;19929;-75
2023/12/16 09:37:14;;;;;;;;;;;;;;;7.25;80.17;103267.44;4125910;28;19921;-75
2023/12/16 09:39:17;;;;;;;;;;;;;;;7.24;80.37;103268.25;4105796;28;20402;-75
2023/12/16 09:41:23;;;;;;;;;;;;;;;7.27;80.10;103270.13;4139093;28;20377;-75
2023/12/16 09:43:27;;;;;;;;;;;;;;;7.25;79.95;103272.59;4111956;28;19922;-75
2023/12/16 09:48:10;;;;;;;;;;;;;;;7.36;79.92;103277.66;4138955;28;19926;-75
2023/12/16 09:50:14;;;;;;;;;;;;;;;7.38;79.54;103274.41;4112301;28;19922;-76
2023/12/16 09:52:17;;;;;;;;;;;;;;;7.40;79.63;103272.81;4140537;28;19922;-75
2023/12/16 09:54:21;;;;;;;;;;;;;;;7.43;79.19;103277.31;4120227;28;19926;-76
2023/12/16 09:56:28;;;;;;;;;;;;;;;7.48;78.91;103265.63;4118897;28;19976;-76
2023/12/16 09:58:34;;;;;;;;;;;;;;;7.39;78.12;103271.03;4115614;28;19949;-76
2023/12/16 10:00:42;;;;;;;;;;;;;;;7.40;78.01;103272.81;4113790;28;20285;-76
2023/12/16 10:02:50;;;;;;;;;;;;;;;7.42;78.34;103263.50;4142013;28;20428;-75
2023/12/16 10:04:57;;;;;;;;;;;;;;;7.46;78.06;103268.09;4135634;28;19921;-76
2023/12/16 10:07:02;;;;;;;;;;;;;;;7.49;78.26;103270.00;4130100;28;19968;-76
2023/12/16 10:09:06;;;;;;;;;;;;;;;7.60;78.42;103270.78;4138279;28;19925;-75
2023/12/16 10:11:10;;;;;;;;;;;;;;;7.55;77.92;103262.69;4135367;28;19925;-76
2023/12/16 10:13:17;;;;;;;;;;;;;;;7.57;78.05;103261.09;4103742;28;19926;-75
2023/12/16 10:15:41;;;;;;;;;;;;;;;7.56;77.58;103259.28;4118852;28;20404;-75
2023/12/16 10:17:46;;;;;;;;;;;;;;;7.54;77.40;103263.47;4103750;28;19923;-76
2023/12/16 10:19:50;;;;;;;;;;;;;;;7.59;77.51;103264.69;4099300;28;19925;-76
2023/12/16 10:21:57;;;;;;;;;;;;;;;7.62;77.44;103254.56;4134002;28;19922;-76
2023/12/16 10:24:01;;;;;;;;;;;;;;;7.67;77.27;103248.03;4119268;28;19929;-76
2023/12/16 10:26:06;;;;;;;;;;;;;;;7.72;76.88;103245.75;4102526;28;19929;-76
2023/12/16 10:28:10;;;;;;;;;;;;;;;7.75;76.74;103240.78;4118931;28;20404;-75
2023/12/16 10:30:14;;;;;;;;;;;;;;;7.77;76.58;103243.47;4135758;28;19933;-76
2023/12/16 10:32:21;;;;;;;;;;;;;;;7.79;76.53;103242.81;4099898;28;19926;-75
2023/12/16 10:34:24;;;;;;;;;;;;;;;7.85;76.17;103243.22;4114301;28;19922;-76
2023/12/16 10:36:29;;;;;;;;;;;;;;;7.87;76.26;103245.97;4126384;28;19922;-75
2023/12/16 10:38:33;;;;;;;;;;;;;;;7.92;75.74;103238.50;4117008;28;19970;-75
2023/12/16 10:40:38;;;;;;;;;;;;;;;7.96;74.97;103240.53;4098659;28;19926;-75
2023/12/16 10:42:41;;;;;;;;;;;;;;;7.99;74.41;103236.44;4113968;28;19922;-75